sensor_id;sensor_type;location;lat;lon;timestamp;temperature;humidity
3053;DHT22;1536;51.098;6.414;2022-11-20T00:00:16;7.70;99.90
3053;DHT22;1536;51.098;6.414;2022-11-20T00:02:43;7.70;99.90
3053;DHT22;1536;51.098;6.414;2022-11-20T00:05:09;7.70;99.90
3053;DHT22;1536;51.098;6.414;2022-11-20T00:07:37;7.70;99.90
3053;DHT22;1536;51.098;6.414;2022-11-20T00:10:05;7.70;99.90
3053;DHT22;1536;51.098;6.414;2022-11-20T00:12:31;7.70;99.90
3053;DHT22;1536;51.098;6.414;2022-11-20T00:14:58;7.70;99.90
3053;DHT22;1536;51.098;6.414;2022-11-20T00:17:25;7.70;99.90
3053;DHT22;1536;51.098;6.414;2022-11-20T00:19:52;7.70;99.90
3053;DHT22;1536;51.098;6.414;2022-11-20T00:22:19;7.70;99.90
3053;DHT22;1536;51.098;6.414;2022-11-20T00:24:47;7.80;99.90
3053;DHT22;1536;51.098;6.414;2022-11-20T00:27:13;7.70;99.90
3053;DHT22;1536;51.098;6.414;2022-11-20T00:29:40;7.70;99.90
3053;DHT22;1536;51.098;6.414;2022-11-20T00:32:07;7.70;99.90
3053;DHT22;1536;51.098;6.414;2022-11-20T00:34:33;7.70;99.90
3053;DHT22;1536;51.098;6.414;2022-11-20T00:37:00;7.70;99.90
3053;DHT22;1536;51.098;6.414;2022-11-20T00:39:27;7.70;99.90
3053;DHT22;1536;51.098;6.414;2022-11-20T00:41:55;7.70;99.90
3053;DHT22;1536;51.098;6.414;2022-11-20T00:44:21;7.70;99.90
3053;DHT22;1536;51.098;6.414;2022-11-20T00:46:48;7.70;99.90
3053;DHT22;1536;51.098;6.414;2022-11-20T00:49:15;7.60;99.90
3053;DHT22;1536;51.098;6.414;2022-11-20T00:51:42;7.60;99.90
3053;DHT22;1536;51.098;6.414;2022-11-20T00:54:08;7.60;99.90
3053;DHT22;1536;51.098;6.414;2022-11-20T00:56:35;7.60;99.90
3053;DHT22;1536;51.098;6.414;2022-11-20T00:59:03;7.60;99.90
3053;DHT22;1536;51.098;6.414;2022-11-20T01:01:30;7.60;99.90
3053;DHT22;1536;51.098;6.414;2022-11-20T01:03:59;7.70;99.90
3053;DHT22;1536;51.098;6.414;2022-11-20T01:06:27;7.60;99.90
3053;DHT22;1536;51.098;6.414;2022-11-20T01:08:56;7.60;99.90
3053;DHT22;1536;51.098;6.414;2022-11-20T01:11:25;7.60;99.90
3053;DHT22;1536;51.098;6.414;2022-11-20T01:13:53;7.70;99.90
3053;DHT22;1536;51.098;6.414;2022-11-20T01:16:23;7.70;99.90
3053;DHT22;1536;51.098;6.414;2022-11-20T01:18:52;7.70;99.90
3053;DHT22;1536;51.098;6.414;2022-11-20T01:21:21;7.70;99.90
3053;DHT22;1536;51.098;6.414;2022-11-20T01:23:49;7.70;99.90
3053;DHT22;1536;51.098;6.414;2022-11-20T01:26:18;7.70;99.90
3053;DHT22;1536;51.098;6.414;2022-11-20T01:28:46;7.70;99.90
3053;DHT22;1536;51.098;6.414;2022-11-20T01:31:14;7.80;99.90
3053;DHT22;1536;51.098;6.414;2022-11-20T01:33:44;7.80;99.90
3053;DHT22;1536;51.098;6.414;2022-11-20T01:36:11;7.70;99.90
3053;DHT22;1536;51.098;6.414;2022-11-20T01:38:39;7.70;99.90
3053;DHT22;1536;51.098;6.414;2022-11-20T01:41:06;7.70;99.90
3053;DHT22;1536;51.098;6.414;2022-11-20T01:43:33;7.80;99.90
3053;DHT22;1536;51.098;6.414;2022-11-20T01:46:14;7.80;99.90
3053;DHT22;1536;51.098;6.414;2022-11-20T01:48:49;7.80;99.90
3053;DHT22;1536;51.098;6.414;2022-11-20T01:51:21;7.80;99.90
3053;DHT22;1536;51.098;6.414;2022-11-20T01:53:50;7.80;99.90
3053;DHT22;1536;51.098;6.414;2022-11-20T01:56:18;7.80;99.90
3053;DHT22;1536;51.098;6.414;2022-11-20T01:58:48;7.80;99.90
3053;DHT22;1536;51.098;6.414;2022-11-20T02:01:15;7.80;99.90
3053;DHT22;1536;51.098;6.414;2022-11-20T02:03:43;7.80;99.90
3053;DHT22;1536;51.098;6.414;2022-11-20T02:06:15;7.80;99.90
3053;DHT22;1536;51.098;6.414;2022-11-20T02:08:43;7.80;99.90
3053;DHT22;1536;51.098;6.414;2022-11-20T02:11:10;7.80;99.90
3053;DHT22;1536;51.098;6.414;2022-11-20T02:13:38;7.80;99.90
3053;DHT22;1536;51.098;6.414;2022-11-20T02:16:19;7.80;99.90
3053;DHT22;1536;51.098;6.414;2022-11-20T02:18:49;7.80;99.90
3053;DHT22;1536;51.098;6.414;2022-11-20T02:21:28;7.80;99.90
3053;DHT22;1536;51.098;6.414;2022-11-20T02:24:06;7.80;99.90
3053;DHT22;1536;51.098;6.414;2022-11-20T02:26:39;7.80;99.90
3053;DHT22;1536;51.098;6.414;2022-11-20T02:29:07;7.80;99.90
3053;DHT22;1536;51.098;6.414;2022-11-20T02:31:37;7.80;99.90
3053;DHT22;1536;51.098;6.414;2022-11-20T02:34:04;7.80;99.90
3053;DHT22;1536;51.098;6.414;2022-11-20T02:36:32;7.80;99.90
3053;DHT22;1536;51.098;6.414;2022-11-20T02:39:00;7.90;99.90
3053;DHT22;1536;51.098;6.414;2022-11-20T02:41:33;7.80;99.90
3053;DHT22;1536;51.098;6.414;2022-11-20T02:44:00;7.90;99.90
3053;DHT22;1536;51.098;6.414;2022-11-20T02:46:27;7.80;99.90
3053;DHT22;1536;51.098;6.414;2022-11-20T02:48:53;7.80;99.90
3053;DHT22;1536;51.098;6.414;2022-11-20T02:51:20;7.80;99.90
3053;DHT22;1536;51.098;6.414;2022-11-20T02:53:47;7.80;99.90
3053;DHT22;1536;51.098;6.414;2022-11-20T02:56:14;7.80;99.90
3053;DHT22;1536;51.098;6.414;2022-11-20T02:58:42;7.80;99.90
3053;DHT22;1536;51.098;6.414;2022-11-20T03:01:08;7.70;99.90
3053;DHT22;1536;51.098;6.414;2022-11-20T03:03:35;7.70;99.90
3053;DHT22;1536;51.098;6.414;2022-11-20T03:06:02;7.70;99.90
3053;DHT22;1536;51.098;6.414;2022-11-20T03:08:29;7.70;99.90
3053;DHT22;1536;51.098;6.414;2022-11-20T03:10:56;7.70;99.90
3053;DHT22;1536;51.098;6.414;2022-11-20T03:13:22;7.70;99.90
3053;DHT22;1536;51.098;6.414;2022-11-20T03:15:52;7.70;99.90
3053;DHT22;1536;51.098;6.414;2022-11-20T03:18:19;7.70;99.90
3053;DHT22;1536;51.098;6.414;2022-11-20T03:20:45;7.70;99.90
3053;DHT22;1536;51.098;6.414;2022-11-20T03:23:12;7.70;99.90
3053;DHT22;1536;51.098;6.414;2022-11-20T03:25:39;7.60;99.90
3053;DHT22;1536;51.098;6.414;2022-11-20T03:28:05;7.60;99.90
3053;DHT22;1536;51.098;6.414;2022-11-20T03:30:32;7.60;99.90
3053;DHT22;1536;51.098;6.414;2022-11-20T03:33:00;7.50;99.90
3053;DHT22;1536;51.098;6.414;2022-11-20T03:35:27;7.50;99.90
3053;DHT22;1536;51.098;6.414;2022-11-20T03:37:53;7.50;99.90
3053;DHT22;1536;51.098;6.414;2022-11-20T03:40:20;7.40;99.90
3053;DHT22;1536;51.098;6.414;2022-11-20T03:42:47;7.40;99.90
3053;DHT22;1536;51.098;6.414;2022-11-20T03:45:14;7.40;99.90
3053;DHT22;1536;51.098;6.414;2022-11-20T03:47:42;7.40;99.90
3053;DHT22;1536;51.098;6.414;2022-11-20T03:50:11;7.40;99.90
3053;DHT22;1536;51.098;6.414;2022-11-20T03:52:39;7.40;99.90
3053;DHT22;1536;51.098;6.414;2022-11-20T03:55:06;7.40;99.90
3053;DHT22;1536;51.098;6.414;2022-11-20T03:57:33;7.40;99.90
3053;DHT22;1536;51.098;6.414;2022-11-20T04:00:00;7.30;99.90
3053;DHT22;1536;51.098;6.414;2022-11-20T04:02:27;7.30;99.90
3053;DHT22;1536;51.098;6.414;2022-11-20T04:04:53;7.30;99.90
3053;DHT22;1536;51.098;6.414;2022-11-20T04:07:21;7.30;99.90
3053;DHT22;1536;51.098;6.414;2022-11-20T04:09:48;7.30;99.90
3053;DHT22;1536;51.098;6.414;2022-11-20T04:12:15;7.30;99.90
3053;DHT22;1536;51.098;6.414;2022-11-20T04:14:41;7.30;99.90
3053;DHT22;1536;51.098;6.414;2022-11-20T04:17:08;7.30;99.90
3053;DHT22;1536;51.098;6.414;2022-11-20T04:19:35;7.30;99.90
3053;DHT22;1536;51.098;6.414;2022-11-20T04:22:01;7.30;99.90
3053;DHT22;1536;51.098;6.414;2022-11-20T04:24:29;7.30;99.90
3053;DHT22;1536;51.098;6.414;2022-11-20T04:26:56;7.30;99.90
3053;DHT22;1536;51.098;6.414;2022-11-20T04:29:23;7.30;99.90
3053;DHT22;1536;51.098;6.414;2022-11-20T04:31:49;7.30;99.90
3053;DHT22;1536;51.098;6.414;2022-11-20T04:34:16;7.20;99.90
3053;DHT22;1536;51.098;6.414;2022-11-20T04:36:43;7.20;99.90
3053;DHT22;1536;51.098;6.414;2022-11-20T04:39:14;7.20;99.90
3053;DHT22;1536;51.098;6.414;2022-11-20T04:41:42;7.20;99.90
3053;DHT22;1536;51.098;6.414;2022-11-20T04:44:10;7.20;99.90
3053;DHT22;1536;51.098;6.414;2022-11-20T04:46:38;7.20;99.90
3053;DHT22;1536;51.098;6.414;2022-11-20T04:49:06;7.20;99.90
3053;DHT22;1536;51.098;6.414;2022-11-20T04:51:33;7.20;99.90
3053;DHT22;1536;51.098;6.414;2022-11-20T04:54:00;7.20;99.90
3053;DHT22;1536;51.098;6.414;2022-11-20T04:56:27;7.10;99.90
3053;DHT22;1536;51.098;6.414;2022-11-20T04:58:55;7.20;99.90
3053;DHT22;1536;51.098;6.414;2022-11-20T05:01:23;7.20;99.90
3053;DHT22;1536;51.098;6.414;2022-11-20T05:03:50;7.10;99.90
3053;DHT22;1536;51.098;6.414;2022-11-20T05:06:18;7.10;99.90
3053;DHT22;1536;51.098;6.414;2022-11-20T05:08:45;7.10;99.90
3053;DHT22;1536;51.098;6.414;2022-11-20T05:11:13;7.10;99.90
3053;DHT22;1536;51.098;6.414;2022-11-20T05:13:41;7.10;99.90
3053;DHT22;1536;51.098;6.414;2022-11-20T05:16:10;7.10;99.90
3053;DHT22;1536;51.098;6.414;2022-11-20T05:18:38;7.10;99.90
3053;DHT22;1536;51.098;6.414;2022-11-20T05:21:05;7.10;99.90
3053;DHT22;1536;51.098;6.414;2022-11-20T05:23:32;7.10;99.90
3053;DHT22;1536;51.098;6.414;2022-11-20T05:25:59;7.10;99.90
3053;DHT22;1536;51.098;6.414;2022-11-20T05:28:27;7.10;99.90
3053;DHT22;1536;51.098;6.414;2022-11-20T05:30:54;7.10;99.90
3053;DHT22;1536;51.098;6.414;2022-11-20T05:33:22;7.00;99.90
3053;DHT22;1536;51.098;6.414;2022-11-20T05:35:49;7.00;99.90
3053;DHT22;1536;51.098;6.414;2022-11-20T05:38:16;7.00;99.90
3053;DHT22;1536;51.098;6.414;2022-11-20T05:40:42;7.00;99.90
3053;DHT22;1536;51.098;6.414;2022-11-20T05:43:09;7.00;99.90
3053;DHT22;1536;51.098;6.414;2022-11-20T05:45:36;7.00;99.90
3053;DHT22;1536;51.098;6.414;2022-11-20T05:48:03;7.00;99.90
3053;DHT22;1536;51.098;6.414;2022-11-20T05:50:31;7.00;99.90
3053;DHT22;1536;51.098;6.414;2022-11-20T05:52:58;7.00;99.90
3053;DHT22;1536;51.098;6.414;2022-11-20T05:55:25;7.00;99.90
3053;DHT22;1536;51.098;6.414;2022-11-20T05:57:52;6.90;99.90
3053;DHT22;1536;51.098;6.414;2022-11-20T06:00:20;6.90;99.90
3053;DHT22;1536;51.098;6.414;2022-11-20T06:02:46;6.90;99.90
3053;DHT22;1536;51.098;6.414;2022-11-20T06:05:13;7.00;99.90
3053;DHT22;1536;51.098;6.414;2022-11-20T06:07:41;7.00;99.90
3053;DHT22;1536;51.098;6.414;2022-11-20T06:10:08;7.00;99.90
3053;DHT22;1536;51.098;6.414;2022-11-20T06:12:35;7.00;99.90
3053;DHT22;1536;51.098;6.414;2022-11-20T06:15:03;7.00;99.90
3053;DHT22;1536;51.098;6.414;2022-11-20T06:17:29;7.00;99.90
3053;DHT22;1536;51.098;6.414;2022-11-20T06:19:56;7.00;99.90
3053;DHT22;1536;51.098;6.414;2022-11-20T06:22:23;7.00;99.90
3053;DHT22;1536;51.098;6.414;2022-11-20T06:24:51;7.00;99.90
3053;DHT22;1536;51.098;6.414;2022-11-20T06:27:18;6.90;99.90
3053;DHT22;1536;51.098;6.414;2022-11-20T06:29:45;6.90;99.90
3053;DHT22;1536;51.098;6.414;2022-11-20T06:32:11;6.90;99.90
3053;DHT22;1536;51.098;6.414;2022-11-20T06:34:38;6.90;99.90
3053;DHT22;1536;51.098;6.414;2022-11-20T06:37:05;6.90;99.90
3053;DHT22;1536;51.098;6.414;2022-11-20T06:39:31;6.90;99.90
3053;DHT22;1536;51.098;6.414;2022-11-20T06:41:59;6.90;99.90
3053;DHT22;1536;51.098;6.414;2022-11-20T06:44:26;6.90;99.90
3053;DHT22;1536;51.098;6.414;2022-11-20T06:46:53;6.90;99.90
3053;DHT22;1536;51.098;6.414;2022-11-20T06:49:19;6.90;99.90
3053;DHT22;1536;51.098;6.414;2022-11-20T06:51:46;6.90;99.90
3053;DHT22;1536;51.098;6.414;2022-11-20T06:54:13;6.90;99.90
3053;DHT22;1536;51.098;6.414;2022-11-20T06:56:39;7.00;99.90
3053;DHT22;1536;51.098;6.414;2022-11-20T06:59:08;7.00;99.90
3053;DHT22;1536;51.098;6.414;2022-11-20T07:01:35;7.00;99.90
3053;DHT22;1536;51.098;6.414;2022-11-20T07:04:01;7.00;99.90
3053;DHT22;1536;51.098;6.414;2022-11-20T07:06:28;7.00;99.90
3053;DHT22;1536;51.098;6.414;2022-11-20T07:08:55;7.00;99.90
3053;DHT22;1536;51.098;6.414;2022-11-20T07:11:21;7.00;99.90
3053;DHT22;1536;51.098;6.414;2022-11-20T07:13:48;7.00;99.90
3053;DHT22;1536;51.098;6.414;2022-11-20T07:16:16;7.00;99.90
3053;DHT22;1536;51.098;6.414;2022-11-20T07:18:43;7.00;99.90
3053;DHT22;1536;51.098;6.414;2022-11-20T07:21:10;7.10;99.90
3053;DHT22;1536;51.098;6.414;2022-11-20T07:23:37;7.10;99.90
3053;DHT22;1536;51.098;6.414;2022-11-20T07:26:04;7.10;99.90
3053;DHT22;1536;51.098;6.414;2022-11-20T07:28:31;7.10;99.90
3053;DHT22;1536;51.098;6.414;2022-11-20T07:30:58;7.10;99.90
3053;DHT22;1536;51.098;6.414;2022-11-20T07:33:26;7.10;99.90
3053;DHT22;1536;51.098;6.414;2022-11-20T07:36:08;7.20;99.90
3053;DHT22;1536;51.098;6.414;2022-11-20T07:38:36;7.20;99.90
3053;DHT22;1536;51.098;6.414;2022-11-20T07:41:03;7.20;99.90
3053;DHT22;1536;51.098;6.414;2022-11-20T07:43:30;7.20;99.90
3053;DHT22;1536;51.098;6.414;2022-11-20T07:45:58;7.20;99.90
3053;DHT22;1536;51.098;6.414;2022-11-20T07:48:26;7.20;99.90
3053;DHT22;1536;51.098;6.414;2022-11-20T07:50:53;7.20;99.90
3053;DHT22;1536;51.098;6.414;2022-11-20T07:53:20;7.20;99.90
3053;DHT22;1536;51.098;6.414;2022-11-20T07:55:48;7.30;99.90
3053;DHT22;1536;51.098;6.414;2022-11-20T07:58:15;7.30;99.90
3053;DHT22;1536;51.098;6.414;2022-11-20T08:00:42;7.30;99.90
3053;DHT22;1536;51.098;6.414;2022-11-20T08:03:08;7.40;99.90
3053;DHT22;1536;51.098;6.414;2022-11-20T08:05:37;7.40;99.90
3053;DHT22;1536;51.098;6.414;2022-11-20T08:08:04;7.40;99.90
3053;DHT22;1536;51.098;6.414;2022-11-20T08:10:32;7.40;99.90
3053;DHT22;1536;51.098;6.414;2022-11-20T08:12:59;7.50;99.90
3053;DHT22;1536;51.098;6.414;2022-11-20T08:15:48;7.50;99.90
3053;DHT22;1536;51.098;6.414;2022-11-20T08:18:14;7.50;99.90
3053;DHT22;1536;51.098;6.414;2022-11-20T08:20:44;7.50;99.90
3053;DHT22;1536;51.098;6.414;2022-11-20T08:23:11;7.50;99.90
3053;DHT22;1536;51.098;6.414;2022-11-20T08:25:38;7.50;99.90
3053;DHT22;1536;51.098;6.414;2022-11-20T08:28:06;7.60;99.90
3053;DHT22;1536;51.098;6.414;2022-11-20T08:30:34;7.60;99.90
3053;DHT22;1536;51.098;6.414;2022-11-20T08:33:01;7.60;99.90
3053;DHT22;1536;51.098;6.414;2022-11-20T08:35:32;7.70;99.90
3053;DHT22;1536;51.098;6.414;2022-11-20T08:38:00;7.70;99.90
3053;DHT22;1536;51.098;6.414;2022-11-20T08:40:27;7.70;99.90
3053;DHT22;1536;51.098;6.414;2022-11-20T08:42:54;7.70;99.90
3053;DHT22;1536;51.098;6.414;2022-11-20T08:45:20;7.70;99.90
3053;DHT22;1536;51.098;6.414;2022-11-20T08:47:48;7.70;99.90
3053;DHT22;1536;51.098;6.414;2022-11-20T08:50:15;7.70;99.90
3053;DHT22;1536;51.098;6.414;2022-11-20T08:52:43;7.70;99.90
3053;DHT22;1536;51.098;6.414;2022-11-20T08:55:11;7.70;99.90
3053;DHT22;1536;51.098;6.414;2022-11-20T08:57:38;7.70;99.90
3053;DHT22;1536;51.098;6.414;2022-11-20T09:00:08;7.70;99.90
3053;DHT22;1536;51.098;6.414;2022-11-20T09:02:36;7.70;99.90
3053;DHT22;1536;51.098;6.414;2022-11-20T09:05:03;7.80;99.90
3053;DHT22;1536;51.098;6.414;2022-11-20T09:07:30;7.80;99.90
3053;DHT22;1536;51.098;6.414;2022-11-20T09:09:57;7.80;99.90
3053;DHT22;1536;51.098;6.414;2022-11-20T09:12:25;7.80;99.90
3053;DHT22;1536;51.098;6.414;2022-11-20T09:14:52;7.90;99.90
3053;DHT22;1536;51.098;6.414;2022-11-20T09:17:18;7.90;99.90
3053;DHT22;1536;51.098;6.414;2022-11-20T09:19:46;7.90;99.90
3053;DHT22;1536;51.098;6.414;2022-11-20T09:22:13;8.00;99.90
3053;DHT22;1536;51.098;6.414;2022-11-20T09:24:40;8.00;99.90
3053;DHT22;1536;51.098;6.414;2022-11-20T09:27:07;8.10;99.90
3053;DHT22;1536;51.098;6.414;2022-11-20T09:29:35;8.20;99.90
3053;DHT22;1536;51.098;6.414;2022-11-20T09:32:02;8.20;99.90
3053;DHT22;1536;51.098;6.414;2022-11-20T09:34:28;8.20;99.90
3053;DHT22;1536;51.098;6.414;2022-11-20T09:36:55;8.20;99.90
3053;DHT22;1536;51.098;6.414;2022-11-20T09:39:22;8.30;99.90
3053;DHT22;1536;51.098;6.414;2022-11-20T09:42:14;8.30;99.90
3053;DHT22;1536;51.098;6.414;2022-11-20T09:45:13;8.30;99.90
3053;DHT22;1536;51.098;6.414;2022-11-20T09:47:52;8.30;99.90
3053;DHT22;1536;51.098;6.414;2022-11-20T09:50:28;8.30;99.90
3053;DHT22;1536;51.098;6.414;2022-11-20T09:53:06;8.30;99.90
3053;DHT22;1536;51.098;6.414;2022-11-20T09:55:36;8.40;99.90
3053;DHT22;1536;51.098;6.414;2022-11-20T09:58:06;8.40;99.90
3053;DHT22;1536;51.098;6.414;2022-11-20T10:00:35;8.40;99.90
3053;DHT22;1536;51.098;6.414;2022-11-20T10:03:10;8.40;99.90
3053;DHT22;1536;51.098;6.414;2022-11-20T10:05:42;8.50;99.90
3053;DHT22;1536;51.098;6.414;2022-11-20T10:08:15;8.50;99.90
3053;DHT22;1536;51.098;6.414;2022-11-20T10:10:46;8.50;99.90
3053;DHT22;1536;51.098;6.414;2022-11-20T10:13:36;8.50;99.90
3053;DHT22;1536;51.098;6.414;2022-11-20T10:16:18;8.50;99.90
3053;DHT22;1536;51.098;6.414;2022-11-20T10:18:57;8.60;99.90
3053;DHT22;1536;51.098;6.414;2022-11-20T10:21:30;8.60;99.90
3053;DHT22;1536;51.098;6.414;2022-11-20T10:24:21;8.60;99.90
3053;DHT22;1536;51.098;6.414;2022-11-20T10:26:57;8.70;99.90
3053;DHT22;1536;51.098;6.414;2022-11-20T10:29:32;8.70;99.90
3053;DHT22;1536;51.098;6.414;2022-11-20T10:32:03;8.70;99.90
3053;DHT22;1536;51.098;6.414;2022-11-20T10:34:45;8.80;99.90
3053;DHT22;1536;51.098;6.414;2022-11-20T10:37:17;8.80;99.90
3053;DHT22;1536;51.098;6.414;2022-11-20T10:39:50;8.80;99.90
3053;DHT22;1536;51.098;6.414;2022-11-20T10:42:25;8.80;99.90
3053;DHT22;1536;51.098;6.414;2022-11-20T10:44:58;8.80;99.90
3053;DHT22;1536;51.098;6.414;2022-11-20T10:47:35;8.90;99.90
3053;DHT22;1536;51.098;6.414;2022-11-20T10:50:04;8.90;99.90
3053;DHT22;1536;51.098;6.414;2022-11-20T10:52:39;8.90;99.90
3053;DHT22;1536;51.098;6.414;2022-11-20T10:55:17;8.90;99.90
3053;DHT22;1536;51.098;6.414;2022-11-20T10:57:53;8.90;99.90
3053;DHT22;1536;51.098;6.414;2022-11-20T11:00:21;8.90;99.90
3053;DHT22;1536;51.098;6.414;2022-11-20T11:02:50;8.90;99.90
3053;DHT22;1536;51.098;6.414;2022-11-20T11:05:33;8.90;99.90
3053;DHT22;1536;51.098;6.414;2022-11-20T11:08:03;8.90;99.90
3053;DHT22;1536;51.098;6.414;2022-11-20T11:10:37;9.00;99.90
3053;DHT22;1536;51.098;6.414;2022-11-20T11:13:06;9.00;99.90
3053;DHT22;1536;51.098;6.414;2022-11-20T11:15:38;9.00;99.90
3053;DHT22;1536;51.098;6.414;2022-11-20T11:18:09;9.00;99.90
3053;DHT22;1536;51.098;6.414;2022-11-20T11:20:35;9.00;99.90
3053;DHT22;1536;51.098;6.414;2022-11-20T11:23:04;9.00;99.90
3053;DHT22;1536;51.098;6.414;2022-11-20T11:25:32;9.00;99.90
3053;DHT22;1536;51.098;6.414;2022-11-20T11:28:01;9.00;99.90
3053;DHT22;1536;51.098;6.414;2022-11-20T11:30:29;9.00;99.90
3053;DHT22;1536;51.098;6.414;2022-11-20T11:33:06;9.00;99.90
3053;DHT22;1536;51.098;6.414;2022-11-20T11:35:44;9.00;99.90
3053;DHT22;1536;51.098;6.414;2022-11-20T11:38:14;9.00;99.90
3053;DHT22;1536;51.098;6.414;2022-11-20T11:40:42;9.00;99.90
3053;DHT22;1536;51.098;6.414;2022-11-20T11:43:18;9.00;99.90
3053;DHT22;1536;51.098;6.414;2022-11-20T11:46:12;9.10;99.90
3053;DHT22;1536;51.098;6.414;2022-11-20T11:48:41;9.10;99.90
3053;DHT22;1536;51.098;6.414;2022-11-20T11:51:08;9.10;99.90
3053;DHT22;1536;51.098;6.414;2022-11-20T11:53:38;9.10;99.90
3053;DHT22;1536;51.098;6.414;2022-11-20T11:56:09;9.10;99.90
3053;DHT22;1536;51.098;6.414;2022-11-20T11:58:42;9.10;99.90
3053;DHT22;1536;51.098;6.414;2022-11-20T12:01:21;9.10;99.90
3053;DHT22;1536;51.098;6.414;2022-11-20T12:03:59;9.10;99.90
3053;DHT22;1536;51.098;6.414;2022-11-20T12:06:28;9.10;99.90
3053;DHT22;1536;51.098;6.414;2022-11-20T12:09:01;9.10;99.90
3053;DHT22;1536;51.098;6.414;2022-11-20T12:11:33;9.10;99.90
3053;DHT22;1536;51.098;6.414;2022-11-20T12:14:04;9.10;99.90
3053;DHT22;1536;51.098;6.414;2022-11-20T12:16:37;9.10;99.90
3053;DHT22;1536;51.098;6.414;2022-11-20T12:19:08;9.20;99.90
3053;DHT22;1536;51.098;6.414;2022-11-20T12:21:44;9.20;99.90
3053;DHT22;1536;51.098;6.414;2022-11-20T12:24:32;9.10;99.90
3053;DHT22;1536;51.098;6.414;2022-11-20T12:27:11;9.20;99.90
3053;DHT22;1536;51.098;6.414;2022-11-20T12:29:52;9.20;99.90
3053;DHT22;1536;51.098;6.414;2022-11-20T12:33:08;9.20;99.90
3053;DHT22;1536;51.098;6.414;2022-11-20T12:35:59;9.30;99.90
3053;DHT22;1536;51.098;6.414;2022-11-20T12:38:58;9.30;99.90
3053;DHT22;1536;51.098;6.414;2022-11-20T12:41:46;9.30;99.90
3053;DHT22;1536;51.098;6.414;2022-11-20T12:44:47;9.30;99.90
3053;DHT22;1536;51.098;6.414;2022-11-20T12:48:01;9.30;99.90
3053;DHT22;1536;51.098;6.414;2022-11-20T12:50:36;9.30;99.90
3053;DHT22;1536;51.098;6.414;2022-11-20T12:53:10;9.30;99.90
3053;DHT22;1536;51.098;6.414;2022-11-20T12:55:48;9.30;99.90
3053;DHT22;1536;51.098;6.414;2022-11-20T12:58:24;9.30;99.90
3053;DHT22;1536;51.098;6.414;2022-11-20T13:00:59;9.30;99.90
3053;DHT22;1536;51.098;6.414;2022-11-20T13:03:42;9.30;99.90
3053;DHT22;1536;51.098;6.414;2022-11-20T13:06:14;9.40;99.90
3053;DHT22;1536;51.098;6.414;2022-11-20T13:08:48;9.40;99.90
3053;DHT22;1536;51.098;6.414;2022-11-20T13:11:20;9.40;99.90
3053;DHT22;1536;51.098;6.414;2022-11-20T13:14:01;9.40;99.90
3053;DHT22;1536;51.098;6.414;2022-11-20T13:16:36;9.40;99.90
3053;DHT22;1536;51.098;6.414;2022-11-20T13:19:04;9.40;99.90
3053;DHT22;1536;51.098;6.414;2022-11-20T13:21:36;9.40;99.90
3053;DHT22;1536;51.098;6.414;2022-11-20T13:24:21;9.40;99.90
3053;DHT22;1536;51.098;6.414;2022-11-20T13:27:00;9.40;99.90
3053;DHT22;1536;51.098;6.414;2022-11-20T13:29:27;9.40;99.90
3053;DHT22;1536;51.098;6.414;2022-11-20T13:32:03;9.50;99.90
3053;DHT22;1536;51.098;6.414;2022-11-20T13:34:30;9.50;99.90
3053;DHT22;1536;51.098;6.414;2022-11-20T13:36:58;9.50;99.90
3053;DHT22;1536;51.098;6.414;2022-11-20T13:39:28;9.50;99.90
3053;DHT22;1536;51.098;6.414;2022-11-20T13:41:57;9.50;99.90
3053;DHT22;1536;51.098;6.414;2022-11-20T13:44:27;9.50;99.90
3053;DHT22;1536;51.098;6.414;2022-11-20T13:46:55;9.50;99.90
3053;DHT22;1536;51.098;6.414;2022-11-20T13:49:26;9.50;99.90
3053;DHT22;1536;51.098;6.414;2022-11-20T13:52:02;9.50;99.90
3053;DHT22;1536;51.098;6.414;2022-11-20T13:55:10;9.50;99.90
3053;DHT22;1536;51.098;6.414;2022-11-20T13:58:00;9.50;99.90
3053;DHT22;1536;51.098;6.414;2022-11-20T14:00:31;9.50;99.90
3053;DHT22;1536;51.098;6.414;2022-11-20T14:03:08;9.50;99.90
3053;DHT22;1536;51.098;6.414;2022-11-20T14:05:40;9.60;99.90
3053;DHT22;1536;51.098;6.414;2022-11-20T14:08:26;9.60;99.90
3053;DHT22;1536;51.098;6.414;2022-11-20T14:11:12;9.60;99.90
3053;DHT22;1536;51.098;6.414;2022-11-20T14:13:39;9.60;99.90
3053;DHT22;1536;51.098;6.414;2022-11-20T14:16:19;9.60;99.90
3053;DHT22;1536;51.098;6.414;2022-11-20T14:18:46;9.60;99.90
3053;DHT22;1536;51.098;6.414;2022-11-20T14:21:21;9.60;99.90
3053;DHT22;1536;51.098;6.414;2022-11-20T14:23:48;9.60;99.90
3053;DHT22;1536;51.098;6.414;2022-11-20T14:26:18;9.60;99.90
3053;DHT22;1536;51.098;6.414;2022-11-20T14:28:48;9.60;99.90
3053;DHT22;1536;51.098;6.414;2022-11-20T14:31:21;9.60;99.90
3053;DHT22;1536;51.098;6.414;2022-11-20T14:33:49;9.60;99.90
3053;DHT22;1536;51.098;6.414;2022-11-20T14:36:17;9.60;99.90
3053;DHT22;1536;51.098;6.414;2022-11-20T14:38:44;9.60;99.90
3053;DHT22;1536;51.098;6.414;2022-11-20T14:41:19;9.60;99.90
3053;DHT22;1536;51.098;6.414;2022-11-20T14:43:47;9.60;99.90
3053;DHT22;1536;51.098;6.414;2022-11-20T14:46:16;9.60;99.90
3053;DHT22;1536;51.098;6.414;2022-11-20T14:48:46;9.60;99.90
3053;DHT22;1536;51.098;6.414;2022-11-20T14:51:26;9.60;99.90
3053;DHT22;1536;51.098;6.414;2022-11-20T14:53:53;9.60;99.90
3053;DHT22;1536;51.098;6.414;2022-11-20T14:56:23;9.60;99.90
3053;DHT22;1536;51.098;6.414;2022-11-20T14:58:57;9.60;99.90
3053;DHT22;1536;51.098;6.414;2022-11-20T15:01:27;9.70;99.90
3053;DHT22;1536;51.098;6.414;2022-11-20T15:04:00;9.70;99.90
3053;DHT22;1536;51.098;6.414;2022-11-20T15:06:28;9.70;99.90
3053;DHT22;1536;51.098;6.414;2022-11-20T15:08:55;9.70;99.90
3053;DHT22;1536;51.098;6.414;2022-11-20T15:11:28;9.70;99.90
3053;DHT22;1536;51.098;6.414;2022-11-20T15:13:56;9.70;99.90
3053;DHT22;1536;51.098;6.414;2022-11-20T15:16:24;9.70;99.90
3053;DHT22;1536;51.098;6.414;2022-11-20T15:18:53;9.60;99.90
3053;DHT22;1536;51.098;6.414;2022-11-20T15:21:20;9.60;99.90
3053;DHT22;1536;51.098;6.414;2022-11-20T15:23:48;9.50;99.90
3053;DHT22;1536;51.098;6.414;2022-11-20T15:26:20;9.40;99.90
3053;DHT22;1536;51.098;6.414;2022-11-20T15:28:49;9.40;99.90
3053;DHT22;1536;51.098;6.414;2022-11-20T15:31:18;9.30;99.90
3053;DHT22;1536;51.098;6.414;2022-11-20T15:33:46;9.20;99.90
3053;DHT22;1536;51.098;6.414;2022-11-20T15:36:13;9.20;99.90
3053;DHT22;1536;51.098;6.414;2022-11-20T15:38:40;9.10;99.90
3053;DHT22;1536;51.098;6.414;2022-11-20T15:41:07;9.10;99.90
3053;DHT22;1536;51.098;6.414;2022-11-20T15:43:35;9.00;99.90
3053;DHT22;1536;51.098;6.414;2022-11-20T15:46:06;9.00;99.90
3053;DHT22;1536;51.098;6.414;2022-11-20T15:48:37;9.00;99.90
3053;DHT22;1536;51.098;6.414;2022-11-20T15:51:12;8.90;99.90
3053;DHT22;1536;51.098;6.414;2022-11-20T15:53:41;8.90;99.90
3053;DHT22;1536;51.098;6.414;2022-11-20T15:56:11;8.90;99.90
3053;DHT22;1536;51.098;6.414;2022-11-20T15:58:39;8.80;99.90
3053;DHT22;1536;51.098;6.414;2022-11-20T16:01:10;8.80;99.90
3053;DHT22;1536;51.098;6.414;2022-11-20T16:03:36;8.80;99.90
3053;DHT22;1536;51.098;6.414;2022-11-20T16:06:04;8.80;99.90
3053;DHT22;1536;51.098;6.414;2022-11-20T16:08:31;8.80;99.90
3053;DHT22;1536;51.098;6.414;2022-11-20T16:10:58;8.80;99.90
3053;DHT22;1536;51.098;6.414;2022-11-20T16:13:25;8.80;99.90
3053;DHT22;1536;51.098;6.414;2022-11-20T16:16:19;8.80;99.90
3053;DHT22;1536;51.098;6.414;2022-11-20T16:18:47;8.80;99.90
3053;DHT22;1536;51.098;6.414;2022-11-20T16:21:14;8.70;99.90
3053;DHT22;1536;51.098;6.414;2022-11-20T16:23:41;8.70;99.90
3053;DHT22;1536;51.098;6.414;2022-11-20T16:26:12;8.70;99.90
3053;DHT22;1536;51.098;6.414;2022-11-20T16:28:39;8.70;99.90
3053;DHT22;1536;51.098;6.414;2022-11-20T16:31:10;8.70;99.90
3053;DHT22;1536;51.098;6.414;2022-11-20T16:33:39;8.70;99.90
3053;DHT22;1536;51.098;6.414;2022-11-20T16:36:08;8.70;99.90